High gust

Not for real navigation. The accuracy of this data is not assured See disclaimer for more information



ICAO NAME COUNTRY WIND Kt GUST Kt VIS m TEMP/DEW C BARO METAR
RJFE Fukue Airport Japan 34 47 1000 25/25 29.59 RJFE 192300Z 18034G47KT 1000 +SHRA BR FEW001 SCT002 BKN003 25/25 Q1002
KCQC Clines Corners NM United States 31 45 9999 24/6 30.18 KCQC 192253Z AUTO 19031G45KT 10SM CAVOK 24/06 A3018 RMK AO2 PK WND 19045/2248 SLP114 T02390061
KMWN Mount Washington NH United States 35 45 9999 16/16 29.92 KMWN 192253Z 28035G45KT 0SM FG VV000 16/16 RMK
RKPK Pusan / Kimhae International A Korea, South 23 41 1600 25/23 29.59 RKPK 192301Z 12023G41KT 1600 +RA BR FEW005 BKN010 OVC020 25/23 Q1002 RMK CIG010
YMML Melbourne Airport Australia 27 37 9999 10/6 30.09 YMML 192301Z 36027G37KT 9999 FEW015 BKN300 10/06 Q1019 RF00.0/000.0

Show more